sensor_id;sensor_type;location;lat;lon;timestamp;pressure;altitude;pressure_sealevel;temperature;humidity
20955;BME280;10636;19.390;-99.256;2022-08-23T00:01:06;77871.38;;;25.15;41.54
20955;BME280;10636;19.390;-99.256;2022-08-23T00:03:34;77873.97;;;25.13;41.60
20955;BME280;10636;19.390;-99.256;2022-08-23T00:06:03;77876.03;;;25.15;41.28
20955;BME280;10636;19.390;-99.256;2022-08-23T00:08:32;77888.09;;;25.14;41.32
20955;BME280;10636;19.390;-99.256;2022-08-23T00:11:02;77892.06;;;25.13;41.82
20955;BME280;10636;19.390;-99.256;2022-08-23T00:13:31;77896.75;;;25.12;41.79
20955;BME280;10636;19.390;-99.256;2022-08-23T00:16:02;77895.38;;;25.11;42.15
20955;BME280;10636;19.390;-99.256;2022-08-23T00:18:31;77897.97;;;25.09;42.30
20955;BME280;10636;19.390;-99.256;2022-08-23T00:20:59;77901.91;;;25.06;41.96
20955;BME280;10636;19.390;-99.256;2022-08-23T00:23:28;77881.59;;;24.83;42.50
20955;BME280;10636;19.390;-99.256;2022-08-23T00:25:56;77916.59;;;25.05;42.32
20955;BME280;10636;19.390;-99.256;2022-08-23T00:28:26;77914.53;;;25.03;42.66
20955;BME280;10636;19.390;-99.256;2022-08-23T00:30:54;77909.72;;;25.00;42.80
20955;BME280;10636;19.390;-99.256;2022-08-23T00:33:23;77905.56;;;24.97;42.87
20955;BME280;10636;19.390;-99.256;2022-08-23T00:35:52;77910.88;;;24.95;42.86
20955;BME280;10636;19.390;-99.256;2022-08-23T00:38:20;77908.09;;;24.93;43.15
20955;BME280;10636;19.390;-99.256;2022-08-23T00:40:51;77904.09;;;24.94;42.91
20955;BME280;10636;19.390;-99.256;2022-08-23T00:43:26;77899.81;;;24.87;43.19
20955;BME280;10636;19.390;-99.256;2022-08-23T00:46:25;77898.38;;;24.84;43.02
20955;BME280;10636;19.390;-99.256;2022-08-23T00:49:11;77890.94;;;24.82;42.92
20955;BME280;10636;19.390;-99.256;2022-08-23T00:51:44;77891.56;;;24.81;42.97
20955;BME280;10636;19.390;-99.256;2022-08-23T00:54:14;77891.50;;;24.78;43.05
20955;BME280;10636;19.390;-99.256;2022-08-23T00:56:44;77895.47;;;24.77;43.09
20955;BME280;10636;19.390;-99.256;2022-08-23T00:59:14;77895.56;;;24.80;42.69
20955;BME280;10636;19.390;-99.256;2022-08-23T01:01:42;77894.25;;;24.81;42.53
20955;BME280;10636;19.390;-99.256;2022-08-23T01:04:12;77892.19;;;24.79;42.28
20955;BME280;10636;19.390;-99.256;2022-08-23T01:06:45;77886.50;;;24.71;41.93
20955;BME280;10636;19.390;-99.256;2022-08-23T01:09:18;77898.06;;;24.75;41.38
20955;BME280;10636;19.390;-99.256;2022-08-23T01:11:51;77903.38;;;24.73;41.60
20955;BME280;10636;19.390;-99.256;2022-08-23T01:14:28;77904.66;;;24.72;41.71
20955;BME280;10636;19.390;-99.256;2022-08-23T01:17:01;77912.56;;;24.68;41.21
20955;BME280;10636;19.390;-99.256;2022-08-23T01:19:34;77915.31;;;24.70;41.28
20955;BME280;10636;19.390;-99.256;2022-08-23T01:22:07;77914.56;;;24.68;41.39
20955;BME280;10636;19.390;-99.256;2022-08-23T01:24:41;77917.84;;;24.66;41.34
20955;BME280;10636;19.390;-99.256;2022-08-23T01:27:11;77919.94;;;24.68;41.51
20955;BME280;10636;19.390;-99.256;2022-08-23T01:29:40;77917.94;;;24.68;41.08
20955;BME280;10636;19.390;-99.256;2022-08-23T01:32:09;77923.19;;;24.66;41.24
20955;BME280;10636;19.390;-99.256;2022-08-23T01:34:39;77924.34;;;24.61;41.04
20955;BME280;10636;19.390;-99.256;2022-08-23T01:37:07;77934.03;;;24.68;41.28
20955;BME280;10636;19.390;-99.256;2022-08-23T01:39:37;77938.59;;;24.66;41.50
20955;BME280;10636;19.390;-99.256;2022-08-23T01:42:07;77941.91;;;24.64;41.62
20955;BME280;10636;19.390;-99.256;2022-08-23T01:44:36;77950.47;;;24.61;42.19
20955;BME280;10636;19.390;-99.256;2022-08-23T01:47:04;77949.56;;;24.54;42.00
20955;BME280;10636;19.390;-99.256;2022-08-23T01:49:33;77957.53;;;24.52;42.12
20955;BME280;10636;19.390;-99.256;2022-08-23T01:52:02;77956.13;;;24.51;42.24
20955;BME280;10636;19.390;-99.256;2022-08-23T01:54:30;77953.44;;;24.51;42.73
20955;BME280;10636;19.390;-99.256;2022-08-23T01:56:59;77952.84;;;24.52;43.27
20955;BME280;10636;19.390;-99.256;2022-08-23T01:59:29;77954.69;;;24.48;43.58
20955;BME280;10636;19.390;-99.256;2022-08-23T02:01:58;77968.16;;;24.50;43.24
20955;BME280;10636;19.390;-99.256;2022-08-23T02:04:26;77960.13;;;24.50;43.56
20955;BME280;10636;19.390;-99.256;2022-08-23T02:06:55;77964.78;;;24.49;43.97
20955;BME280;10636;19.390;-99.256;2022-08-23T02:09:24;77955.75;;;24.41;44.33
20955;BME280;10636;19.390;-99.256;2022-08-23T02:11:52;77971.97;;;24.45;43.97
20955;BME280;10636;19.390;-99.256;2022-08-23T02:14:21;77979.28;;;24.42;43.85
20955;BME280;10636;19.390;-99.256;2022-08-23T02:16:52;77973.81;;;24.40;43.77
20955;BME280;10636;19.390;-99.256;2022-08-23T02:19:21;77972.97;;;24.36;43.97
20955;BME280;10636;19.390;-99.256;2022-08-23T02:21:50;77978.84;;;24.32;44.14
20955;BME280;10636;19.390;-99.256;2022-08-23T02:24:21;77971.31;;;24.29;44.16
20955;BME280;10636;19.390;-99.256;2022-08-23T02:26:53;77976.59;;;24.26;44.52
20955;BME280;10636;19.390;-99.256;2022-08-23T02:29:22;77983.19;;;24.23;44.33
20955;BME280;10636;19.390;-99.256;2022-08-23T02:31:53;77979.81;;;24.23;44.52
20955;BME280;10636;19.390;-99.256;2022-08-23T02:34:22;77980.25;;;24.17;44.39
20955;BME280;10636;19.390;-99.256;2022-08-23T02:36:50;77986.81;;;24.14;44.31
20955;BME280;10636;19.390;-99.256;2022-08-23T02:39:19;77984.13;;;24.14;44.50
20955;BME280;10636;19.390;-99.256;2022-08-23T02:41:48;77996.16;;;24.13;44.71
20955;BME280;10636;19.390;-99.256;2022-08-23T02:44:17;78001.44;;;24.11;44.94
20955;BME280;10636;19.390;-99.256;2022-08-23T02:46:46;78005.34;;;24.08;44.66
20955;BME280;10636;19.390;-99.256;2022-08-23T02:49:17;78012.50;;;24.04;44.55
20955;BME280;10636;19.390;-99.256;2022-08-23T02:51:46;78019.16;;;24.03;44.71
20955;BME280;10636;19.390;-99.256;2022-08-23T02:54:15;78020.22;;;23.95;44.85
20955;BME280;10636;19.390;-99.256;2022-08-23T02:56:43;78028.34;;;23.97;44.74
20955;BME280;10636;19.390;-99.256;2022-08-23T02:59:11;78030.94;;;23.95;45.08
20955;BME280;10636;19.390;-99.256;2022-08-23T03:01:40;78032.75;;;23.91;44.89
20955;BME280;10636;19.390;-99.256;2022-08-23T03:04:10;78033.44;;;23.91;45.68
20955;BME280;10636;19.390;-99.256;2022-08-23T03:06:40;78022.03;;;23.91;45.29
20955;BME280;10636;19.390;-99.256;2022-08-23T03:09:09;78022.13;;;23.93;46.00
20955;BME280;10636;19.390;-99.256;2022-08-23T03:11:43;78023.59;;;23.96;45.22
20955;BME280;10636;19.390;-99.256;2022-08-23T03:14:11;78025.75;;;23.99;45.91
20955;BME280;10636;19.390;-99.256;2022-08-23T03:16:40;78032.06;;;24.06;45.48
20955;BME280;10636;19.390;-99.256;2022-08-23T03:19:08;78029.38;;;24.06;45.43
20955;BME280;10636;19.390;-99.256;2022-08-23T03:21:37;78030.75;;;24.07;45.24
20955;BME280;10636;19.390;-99.256;2022-08-23T03:24:07;78042.16;;;24.08;45.84
20955;BME280;10636;19.390;-99.256;2022-08-23T03:26:36;78042.94;;;24.10;45.64
20955;BME280;10636;19.390;-99.256;2022-08-23T03:29:05;78053.72;;;24.12;45.96
20955;BME280;10636;19.390;-99.256;2022-08-23T03:31:33;78053.13;;;24.14;46.02
20955;BME280;10636;19.390;-99.256;2022-08-23T03:34:02;78055.72;;;24.12;45.59
20955;BME280;10636;19.390;-99.256;2022-08-23T03:36:31;78063.84;;;24.14;45.92
20955;BME280;10636;19.390;-99.256;2022-08-23T03:39:00;78063.25;;;24.15;46.53
20955;BME280;10636;19.390;-99.256;2022-08-23T03:41:30;78082.00;;;24.15;46.73
20955;BME280;10636;19.390;-99.256;2022-08-23T03:43:58;78068.44;;;24.11;46.00
20955;BME280;10636;19.390;-99.256;2022-08-23T03:46:26;78081.41;;;24.17;46.48
20955;BME280;10636;19.390;-99.256;2022-08-23T03:48:56;78078.03;;;24.16;46.20
20955;BME280;10636;19.390;-99.256;2022-08-23T03:51:27;78085.53;;;24.20;46.82
20955;BME280;10636;19.390;-99.256;2022-08-23T03:53:56;78080.16;;;24.20;46.53
20955;BME280;10636;19.390;-99.256;2022-08-23T03:56:26;78079.47;;;24.19;46.74
20955;BME280;10636;19.390;-99.256;2022-08-23T03:58:58;78080.88;;;24.20;46.64
20955;BME280;10636;19.390;-99.256;2022-08-23T04:01:26;78079.47;;;24.19;46.36
20955;BME280;10636;19.390;-99.256;2022-08-23T04:03:55;78071.38;;;24.17;46.20
20955;BME280;10636;19.390;-99.256;2022-08-23T04:06:25;78085.00;;;24.23;46.80
20955;BME280;10636;19.390;-99.256;2022-08-23T04:08:54;78080.34;;;24.24;46.32
20955;BME280;10636;19.390;-99.256;2022-08-23T04:11:22;78072.91;;;24.22;46.33
20955;BME280;10636;19.390;-99.256;2022-08-23T04:13:51;78071.72;;;24.25;45.99
20955;BME280;10636;19.390;-99.256;2022-08-23T04:16:21;78069.03;;;24.25;46.52
20955;BME280;10636;19.390;-99.256;2022-08-23T04:18:49;78075.78;;;24.26;46.44
20955;BME280;10636;19.390;-99.256;2022-08-23T04:21:20;78079.75;;;24.25;46.91
20955;BME280;10636;19.390;-99.256;2022-08-23T04:23:50;78073.09;;;24.26;46.88
20955;BME280;10636;19.390;-99.256;2022-08-23T04:26:19;78079.66;;;24.23;46.37
20955;BME280;10636;19.390;-99.256;2022-08-23T04:28:47;78088.47;;;24.26;46.80
20955;BME280;10636;19.390;-99.256;2022-08-23T04:31:17;78079.03;;;24.25;47.09
20955;BME280;10636;19.390;-99.256;2022-08-23T04:33:47;78085.00;;;24.23;47.16
20955;BME280;10636;19.390;-99.256;2022-08-23T04:36:16;78083.72;;;24.24;46.91
20955;BME280;10636;19.390;-99.256;2022-08-23T04:38:44;78081.72;;;24.25;46.46
20955;BME280;10636;19.390;-99.256;2022-08-23T04:41:13;78073.69;;;24.25;47.40
20955;BME280;10636;19.390;-99.256;2022-08-23T04:43:59;78082.44;;;24.25;46.67
20955;BME280;10636;19.390;-99.256;2022-08-23T04:46:27;78091.16;;;24.26;46.80
20955;BME280;10636;19.390;-99.256;2022-08-23T04:49:00;78081.03;;;24.24;46.46
20955;BME280;10636;19.390;-99.256;2022-08-23T04:51:28;78084.50;;;24.27;47.05
20955;BME280;10636;19.390;-99.256;2022-08-23T04:53:57;78077.16;;;24.27;46.73
20955;BME280;10636;19.390;-99.256;2022-08-23T04:56:25;78077.16;;;24.27;47.09
20955;BME280;10636;19.390;-99.256;2022-08-23T04:58:54;78078.53;;;24.29;46.42
20955;BME280;10636;19.390;-99.256;2022-08-23T05:01:23;78080.53;;;24.28;46.60
20955;BME280;10636;19.390;-99.256;2022-08-23T05:03:52;78070.47;;;24.29;46.77
20955;BME280;10636;19.390;-99.256;2022-08-23T05:06:23;78034.72;;;24.06;46.61
20955;BME280;10636;19.390;-99.256;2022-08-23T05:08:52;78071.84;;;24.30;46.61
20955;BME280;10636;19.390;-99.256;2022-08-23T05:11:20;78066.44;;;24.27;47.06
20955;BME280;10636;19.390;-99.256;2022-08-23T05:13:49;78075.59;;;24.22;47.08
20955;BME280;10636;19.390;-99.256;2022-08-23T05:16:18;78071.00;;;24.25;47.05
20955;BME280;10636;19.390;-99.256;2022-08-23T05:18:46;78074.47;;;24.27;46.78
20955;BME280;10636;19.390;-99.256;2022-08-23T05:21:16;78069.19;;;24.30;46.99
20955;BME280;10636;19.390;-99.256;2022-08-23T05:23:46;78071.19;;;24.29;46.84
20955;BME280;10636;19.390;-99.256;2022-08-23T05:26:15;78071.00;;;24.25;47.40
20955;BME280;10636;19.390;-99.256;2022-08-23T05:28:45;78078.59;;;24.31;47.11
20955;BME280;10636;19.390;-99.256;2022-08-23T05:31:16;78074.47;;;24.27;46.98
20955;BME280;10636;19.390;-99.256;2022-08-23T05:33:45;78065.13;;;24.29;47.12
20955;BME280;10636;19.390;-99.256;2022-08-23T05:36:15;78064.44;;;24.28;46.86
20955;BME280;10636;19.390;-99.256;2022-08-23T05:38:46;78065.13;;;24.29;46.79
20955;BME280;10636;19.390;-99.256;2022-08-23T05:41:15;78066.50;;;24.30;46.79
20955;BME280;10636;19.390;-99.256;2022-08-23T05:43:43;78061.81;;;24.30;47.48
20955;BME280;10636;19.390;-99.256;2022-08-23T05:46:15;78063.81;;;24.30;47.04
20955;BME280;10636;19.390;-99.256;2022-08-23T05:48:44;78055.78;;;24.30;46.80
20955;BME280;10636;19.390;-99.256;2022-08-23T05:51:15;78056.47;;;24.30;46.92
20955;BME280;10636;19.390;-99.256;2022-08-23T05:53:46;78055.19;;;24.31;46.94
20955;BME280;10636;19.390;-99.256;2022-08-23T05:56:18;78051.09;;;24.30;47.15
20955;BME280;10636;19.390;-99.256;2022-08-23T05:58:48;78045.06;;;24.30;47.22
20955;BME280;10636;19.390;-99.256;2022-08-23T06:01:20;78036.94;;;24.27;46.70
20955;BME280;10636;19.390;-99.256;2022-08-23T06:03:49;78047.66;;;24.27;47.15
20955;BME280;10636;19.390;-99.256;2022-08-23T06:06:18;78038.31;;;24.29;47.50
20955;BME280;10636;19.390;-99.256;2022-08-23T06:08:48;78028.22;;;24.27;47.31
20955;BME280;10636;19.390;-99.256;2022-08-23T06:11:19;78030.91;;;24.27;46.73
20955;BME280;10636;19.390;-99.256;2022-08-23T06:13:49;78028.28;;;24.29;47.25
20955;BME280;10636;19.390;-99.256;2022-08-23T06:16:21;78025.59;;;24.29;46.92
20955;BME280;10636;19.390;-99.256;2022-08-23T06:18:51;78027.59;;;24.29;47.58
20955;BME280;10636;19.390;-99.256;2022-08-23T06:21:20;78026.31;;;24.30;47.13
20955;BME280;10636;19.390;-99.256;2022-08-23T06:23:51;78027.59;;;24.29;46.81
20955;BME280;10636;19.390;-99.256;2022-08-23T06:26:22;78022.94;;;24.29;47.19
20955;BME280;10636;19.390;-99.256;2022-08-23T06:28:54;78007.91;;;24.22;46.71
20955;BME280;10636;19.390;-99.256;2022-08-23T06:31:24;78012.22;;;24.29;46.76
20955;BME280;10636;19.390;-99.256;2022-08-23T06:34:11;78016.88;;;24.29;47.09
20955;BME280;10636;19.390;-99.256;2022-08-23T06:36:40;78005.47;;;24.28;47.75
20955;BME280;10636;19.390;-99.256;2022-08-23T06:39:10;78007.41;;;24.25;47.69
20955;BME280;10636;19.390;-99.256;2022-08-23T06:41:39;77995.28;;;24.24;47.24
20955;BME280;10636;19.390;-99.256;2022-08-23T06:44:07;77992.53;;;24.22;47.70
20955;BME280;10636;19.390;-99.256;2022-08-23T06:46:36;77997.94;;;24.24;47.71
20955;BME280;10636;19.390;-99.256;2022-08-23T06:49:06;77999.94;;;24.24;47.68
20955;BME280;10636;19.390;-99.256;2022-08-23T06:51:37;77993.13;;;24.21;47.58
20955;BME280;10636;19.390;-99.256;2022-08-23T06:54:09;77996.56;;;24.23;47.76
20955;BME280;10636;19.390;-99.256;2022-08-23T06:56:39;77994.00;;;24.25;47.41
20955;BME280;10636;19.390;-99.256;2022-08-23T06:59:08;77984.41;;;24.20;47.53
20955;BME280;10636;19.390;-99.256;2022-08-23T07:01:40;77999.25;;;24.23;47.99
20955;BME280;10636;19.390;-99.256;2022-08-23T07:04:10;77992.53;;;24.22;47.92
20955;BME280;10636;19.390;-99.256;2022-08-23T07:06:39;77984.25;;;24.16;47.90
20955;BME280;10636;19.390;-99.256;2022-08-23T07:09:09;77997.88;;;24.22;47.97
20955;BME280;10636;19.390;-99.256;2022-08-23T07:11:38;77987.84;;;24.23;47.50
20955;BME280;10636;19.390;-99.256;2022-08-23T07:14:09;77992.53;;;24.22;47.32
20955;BME280;10636;19.390;-99.256;2022-08-23T07:16:40;77989.84;;;24.22;47.74
20955;BME280;10636;19.390;-99.256;2022-08-23T07:19:09;77989.78;;;24.20;47.58
20955;BME280;10636;19.390;-99.256;2022-08-23T07:21:37;77985.78;;;24.21;48.13
20955;BME280;10636;19.390;-99.256;2022-08-23T07:24:06;77983.88;;;24.24;47.75
20955;BME280;10636;19.390;-99.256;2022-08-23T07:26:37;77983.09;;;24.21;47.48
20955;BME280;10636;19.390;-99.256;2022-08-23T07:29:06;77995.19;;;24.22;47.91
20955;BME280;10636;19.390;-99.256;2022-08-23T07:31:39;78002.44;;;24.20;48.06
20955;BME280;10636;19.390;-99.256;2022-08-23T07:34:09;77996.34;;;24.17;47.94
20955;BME280;10636;19.390;-99.256;2022-08-23T07:36:39;77988.28;;;24.17;47.54
20955;BME280;10636;19.390;-99.256;2022-08-23T07:39:08;77945.22;;;23.95;48.18
20955;BME280;10636;19.390;-99.256;2022-08-23T07:41:39;77943.16;;;23.94;48.32
20955;BME280;10636;19.390;-99.256;2022-08-23T07:44:09;77976.19;;;24.16;48.06
20955;BME280;10636;19.390;-99.256;2022-08-23T07:46:39;77978.88;;;24.16;48.09
20955;BME280;10636;19.390;-99.256;2022-08-23T07:49:08;77978.88;;;24.16;47.85
20955;BME280;10636;19.390;-99.256;2022-08-23T07:51:38;77986.22;;;24.16;47.60
20955;BME280;10636;19.390;-99.256;2022-08-23T07:54:09;77977.50;;;24.15;48.34
20955;BME280;10636;19.390;-99.256;2022-08-23T07:56:39;77977.50;;;24.15;47.72
20955;BME280;10636;19.390;-99.256;2022-08-23T07:59:08;77977.50;;;24.15;47.93
20955;BME280;10636;19.390;-99.256;2022-08-23T08:01:37;77972.84;;;24.16;48.42
20955;BME280;10636;19.390;-99.256;2022-08-23T08:04:07;77974.81;;;24.15;48.20
20955;BME280;10636;19.390;-99.256;2022-08-23T08:06:39;77967.38;;;24.14;47.95
20955;BME280;10636;19.390;-99.256;2022-08-23T08:09:08;77964.69;;;24.14;47.77
20955;BME280;10636;19.390;-99.256;2022-08-23T08:11:42;77966.69;;;24.13;48.53
20955;BME280;10636;19.390;-99.256;2022-08-23T08:14:11;77962.63;;;24.12;48.35
20955;BME280;10636;19.390;-99.256;2022-08-23T08:16:41;77959.88;;;24.10;48.26
20955;BME280;10636;19.390;-99.256;2022-08-23T08:19:13;77958.47;;;24.09;48.39
20955;BME280;10636;19.390;-99.256;2022-08-23T08:21:43;77946.50;;;24.10;48.58
20955;BME280;10636;19.390;-99.256;2022-08-23T08:24:15;77955.13;;;24.09;48.69
20955;BME280;10636;19.390;-99.256;2022-08-23T08:26:45;77952.38;;;24.07;48.59
20955;BME280;10636;19.390;-99.256;2022-08-23T08:29:15;77953.66;;;24.06;48.40
20955;BME280;10636;19.390;-99.256;2022-08-23T08:31:44;77951.59;;;24.04;48.44
20955;BME280;10636;19.390;-99.256;2022-08-23T08:34:14;77954.19;;;24.02;48.82
20955;BME280;10636;19.390;-99.256;2022-08-23T08:36:44;77943.91;;;23.96;48.56
20955;BME280;10636;19.390;-99.256;2022-08-23T08:39:16;77955.56;;;24.03;48.47
20955;BME280;10636;19.390;-99.256;2022-08-23T08:42:01;77952.81;;;24.01;48.17
20955;BME280;10636;19.390;-99.256;2022-08-23T08:44:37;77948.84;;;24.02;48.01
20955;BME280;10636;19.390;-99.256;2022-08-23T08:47:13;77954.19;;;24.02;48.79
20955;BME280;10636;19.390;-99.256;2022-08-23T08:49:46;77956.94;;;24.04;48.44
20955;BME280;10636;19.390;-99.256;2022-08-23T08:52:19;77950.91;;;24.04;48.53
20955;BME280;10636;19.390;-99.256;2022-08-23T08:54:55;77945.53;;;24.04;48.10
20955;BME280;10636;19.390;-99.256;2022-08-23T08:57:32;77940.03;;;23.99;48.34
20955;BME280;10636;19.390;-99.256;2022-08-23T09:00:07;77944.00;;;23.98;48.53
20955;BME280;10636;19.390;-99.256;2022-08-23T09:02:38;77943.91;;;23.96;48.38
20955;BME280;10636;19.390;-99.256;2022-08-23T09:05:10;77937.94;;;23.98;48.52
20955;BME280;10636;19.390;-99.256;2022-08-23T09:07:48;77933.88;;;23.97;48.70
20955;BME280;10636;19.390;-99.256;2022-08-23T09:13:33;77929.84;;;23.96;48.27
20955;BME280;10636;19.390;-99.256;2022-08-23T09:16:12;77931.03;;;23.93;48.32
20955;BME280;10636;19.390;-99.256;2022-08-23T09:18:45;77929.75;;;23.94;48.15
20955;BME280;10636;19.390;-99.256;2022-08-23T09:21:16;77926.38;;;23.93;48.78
20955;BME280;10636;19.390;-99.256;2022-08-23T09:23:47;77933.81;;;23.95;48.80
20955;BME280;10636;19.390;-99.256;2022-08-23T09:26:19;77926.47;;;23.95;49.00
20955;BME280;10636;19.390;-99.256;2022-08-23T09:28:51;77925.78;;;23.95;48.63
20955;BME280;10636;19.390;-99.256;2022-08-23T09:31:37;77917.41;;;23.87;49.26
20955;BME280;10636;19.390;-99.256;2022-08-23T09:34:07;77902.56;;;23.84;48.96
20955;BME280;10636;19.390;-99.256;2022-08-23T09:36:37;77908.25;;;23.92;48.78
20955;BME280;10636;19.390;-99.256;2022-08-23T09:39:12;77899.59;;;23.93;48.42
20955;BME280;10636;19.390;-99.256;2022-08-23T09:41:50;77901.59;;;23.93;48.92
20955;BME280;10636;19.390;-99.256;2022-08-23T09:44:36;77901.59;;;23.93;48.52
20955;BME280;10636;19.390;-99.256;2022-08-23T09:47:07;77901.59;;;23.93;48.73
20955;BME280;10636;19.390;-99.256;2022-08-23T09:49:37;77908.25;;;23.92;48.33
20955;BME280;10636;19.390;-99.256;2022-08-23T09:52:17;77911.53;;;23.90;48.67
20955;BME280;10636;19.390;-99.256;2022-08-23T09:54:55;77920.19;;;23.89;48.88
20955;BME280;10636;19.390;-99.256;2022-08-23T09:57:26;77913.44;;;23.88;48.21
20955;BME280;10636;19.390;-99.256;2022-08-23T10:00:00;77910.69;;;23.86;48.31
20955;BME280;10636;19.390;-99.256;2022-08-23T10:02:31;77916.03;;;23.86;48.93
20955;BME280;10636;19.390;-99.256;2022-08-23T10:05:03;77922.69;;;23.85;49.11
20955;BME280;10636;19.390;-99.256;2022-08-23T10:07:34;77917.25;;;23.83;48.50
20955;BME280;10636;19.390;-99.256;2022-08-23T10:10:17;77916.03;;;23.86;48.54
20955;BME280;10636;19.390;-99.256;2022-08-23T10:12:46;77914.66;;;23.85;49.00
20955;BME280;10636;19.390;-99.256;2022-08-23T10:15:16;77910.69;;;23.86;48.29
20955;BME280;10636;19.390;-99.256;2022-08-23T10:17:50;77913.28;;;23.84;48.89
20955;BME280;10636;19.390;-99.256;2022-08-23T10:20:28;77913.28;;;23.84;48.59
20955;BME280;10636;19.390;-99.256;2022-08-23T10:23:14;77908.63;;;23.84;48.55
20955;BME280;10636;19.390;-99.256;2022-08-23T10:25:52;77901.88;;;23.83;49.14
20955;BME280;10636;19.390;-99.256;2022-08-23T10:28:32;77906.53;;;23.83;49.13
20955;BME280;10636;19.390;-99.256;2022-08-23T10:31:30;77910.50;;;23.82;49.12
20955;BME280;10636;19.390;-99.256;2022-08-23T10:34:17;77910.50;;;23.82;49.15
20955;BME280;10636;19.390;-99.256;2022-08-23T10:36:58;77907.75;;;23.80;48.35
20955;BME280;10636;19.390;-99.256;2022-08-23T10:39:30;77910.44;;;23.80;49.11
20955;BME280;10636;19.390;-99.256;2022-08-23T10:42:02;77913.19;;;23.82;48.34
20955;BME280;10636;19.390;-99.256;2022-08-23T10:44:36;77900.88;;;23.74;48.55
20955;BME280;10636;19.390;-99.256;2022-08-23T10:47:22;77914.50;;;23.81;49.35
20955;BME280;10636;19.390;-99.256;2022-08-23T10:49:54;77915.88;;;23.82;48.75
20955;BME280;10636;19.390;-99.256;2022-08-23T10:52:30;77914.50;;;23.81;48.76
20955;BME280;10636;19.390;-99.256;2022-08-23T10:55:03;77909.75;;;23.79;49.46
20955;BME280;10636;19.390;-99.256;2022-08-23T10:57:44;77912.44;;;23.79;48.86
20955;BME280;10636;19.390;-99.256;2022-08-23T11:00:16;77921.06;;;23.78;49.42
20955;BME280;10636;19.390;-99.256;2022-08-23T11:02:53;77912.94;;;23.76;49.59
20955;BME280;10636;19.390;-99.256;2022-08-23T11:05:26;77919.69;;;23.77;49.27
20955;BME280;10636;19.390;-99.256;2022-08-23T11:07:59;77922.97;;;23.75;49.46
20955;BME280;10636;19.390;-99.256;2022-08-23T11:10:32;77926.34;;;23.76;49.24
20955;BME280;10636;19.390;-99.256;2022-08-23T11:13:04;77930.38;;;23.77;49.23
20955;BME280;10636;19.390;-99.256;2022-08-23T11:15:53;77912.47;;;23.63;49.52
20955;BME280;10636;19.390;-99.256;2022-08-23T11:18:42;77920.91;;;23.73;49.12
20955;BME280;10636;19.390;-99.256;2022-08-23T11:21:43;77924.88;;;23.72;49.43
20955;BME280;10636;19.390;-99.256;2022-08-23T11:24:52;77922.28;;;23.74;49.67
20955;BME280;10636;19.390;-99.256;2022-08-23T11:27:31;77916.94;;;23.74;49.79
20955;BME280;10636;19.390;-99.256;2022-08-23T11:30:37;77922.19;;;23.72;48.99
20955;BME280;10636;19.390;-99.256;2022-08-23T11:33:17;77918.91;;;23.74;49.48
20955;BME280;10636;19.390;-99.256;2022-08-23T11:35:50;77915.56;;;23.73;49.51
20955;BME280;10636;19.390;-99.256;2022-08-23T11:41:24;77922.56;;;23.65;49.57
20955;BME280;10636;19.390;-99.256;2022-08-23T11:44:23;77920.38;;;23.61;49.92
20955;BME280;10636;19.390;-99.256;2022-08-23T11:47:01;77921.59;;;23.58;50.05
20955;BME280;10636;19.390;-99.256;2022-08-23T11:50:05;77929.00;;;23.60;50.03
20955;BME280;10636;19.390;-99.256;2022-08-23T11:53:07;77930.94;;;23.57;50.00
20955;BME280;10636;19.390;-99.256;2022-08-23T11:59:02;77934.19;;;23.56;49.59
20955;BME280;10636;19.390;-99.256;2022-08-23T12:01:37;77922.47;;;23.47;49.87
20955;BME280;10636;19.390;-99.256;2022-08-23T12:04:07;77932.75;;;23.53;49.40
20955;BME280;10636;19.390;-99.256;2022-08-23T12:06:47;77938.09;;;23.53;50.29
20955;BME280;10636;19.390;-99.256;2022-08-23T12:09:54;77942.75;;;23.52;50.40
20955;BME280;10636;19.390;-99.256;2022-08-23T12:12:33;77942.06;;;23.52;49.59
20955;BME280;10636;19.390;-99.256;2022-08-23T12:15:05;77944.03;;;23.51;49.65
20955;BME280;10636;19.390;-99.256;2022-08-23T12:20:39;77945.25;;;23.48;49.79
20955;BME280;10636;19.390;-99.256;2022-08-23T12:23:17;77943.88;;;23.47;50.42
20955;BME280;10636;19.390;-99.256;2022-08-23T12:25:58;77940.44;;;23.44;49.75
20955;BME280;10636;19.390;-99.256;2022-08-23T12:28:35;77954.41;;;23.43;49.61
20955;BME280;10636;19.390;-99.256;2022-08-23T12:31:15;77958.41;;;23.42;49.75
20955;BME280;10636;19.390;-99.256;2022-08-23T12:33:52;77954.00;;;23.33;50.34
20955;BME280;10636;19.390;-99.256;2022-08-23T12:36:30;77967.69;;;23.41;50.46
20955;BME280;10636;19.390;-99.256;2022-08-23T12:39:04;77968.41;;;23.41;49.80
20955;BME280;10636;19.390;-99.256;2022-08-23T12:41:51;77957.72;;;23.26;49.97
20955;BME280;10636;19.390;-99.256;2022-08-23T12:44:24;77977.13;;;23.42;50.17
20955;BME280;10636;19.390;-99.256;2022-08-23T12:46:53;77979.13;;;23.41;50.24
20955;BME280;10636;19.390;-99.256;2022-08-23T12:49:25;77976.44;;;23.41;49.82
20955;BME280;10636;19.390;-99.256;2022-08-23T12:51:56;77974.97;;;23.38;49.57
20955;BME280;10636;19.390;-99.256;2022-08-23T12:54:34;77987.84;;;23.42;49.60
20955;BME280;10636;19.390;-99.256;2022-08-23T12:57:07;77987.84;;;23.42;50.48
20955;BME280;10636;19.390;-99.256;2022-08-23T12:59:41;77979.81;;;23.42;50.00
20955;BME280;10636;19.390;-99.256;2022-08-23T13:02:22;77970.72;;;23.33;50.48
20955;BME280;10636;19.390;-99.256;2022-08-23T13:04:51;77982.47;;;23.42;49.57
20955;BME280;10636;19.390;-99.256;2022-08-23T13:07:22;77990.50;;;23.42;50.33
20955;BME280;10636;19.390;-99.256;2022-08-23T13:09:52;77997.13;;;23.41;50.34
20955;BME280;10636;19.390;-99.256;2022-08-23T13:12:23;77994.47;;;23.41;49.66
20955;BME280;10636;19.390;-99.256;2022-08-23T13:14:54;77999.81;;;23.41;50.15
20955;BME280;10636;19.390;-99.256;2022-08-23T13:17:32;77997.25;;;23.43;50.54
20955;BME280;10636;19.390;-99.256;2022-08-23T13:20:21;78005.16;;;23.41;49.56